Time;durP1;ratioP1;P1;durP2;ratioP2;P2;SDS_P1;SDS_P2;PMS_P1;PMS_P2;Temp;Humidity;BMP_temperature;BMP_pressure;BME280_temperature;BME280_humidity;BME280_pressure;Samples;Min_cycle;Max_cycle;Signal;HPM_P1;HPM_P2
2023/05/14 00:00:23;;;;;;;11.18;6.63;;;23.30;44.50;;;;;;7607556;23;79989;-60
2023/05/14 00:03:24;;;;;;;8.38;5.70;;;23.30;44.40;;;;;;7606513;23;80770;-61
2023/05/14 00:06:24;;;;;;;9.05;6.00;;;23.30;44.50;;;;;;7606741;23;80582;-60
2023/05/14 00:09:25;;;;;;;9.00;5.60;;;23.30;44.40;;;;;;7605243;23;80188;-66
2023/05/14 00:12:25;;;;;;;8.63;5.50;;;23.30;44.80;;;;;;7605774;23;80250;-66
2023/05/14 00:15:26;;;;;;;11.85;6.30;;;23.30;44.80;;;;;;7606491;23;80863;-68
2023/05/14 00:18:26;;;;;;;11.88;6.97;;;23.30;44.70;;;;;;7607050;23;80827;-67
2023/05/14 00:21:27;;;;;;;9.25;5.97;;;23.30;44.60;;;;;;7606670;23;80410;-71
2023/05/14 00:24:27;;;;;;;9.02;5.63;;;23.30;44.80;;;;;;7606550;23;80703;-71
2023/05/14 00:27:28;;;;;;;9.57;5.93;;;23.30;44.80;;;;;;7606528;23;80471;-63
2023/05/14 00:30:28;;;;;;;9.27;5.88;;;23.30;44.70;;;;;;7580395;23;80303;-65
2023/05/14 00:33:29;;;;;;;9.95;6.03;;;23.30;44.80;;;;;;7606330;23;80281;-64
2023/05/14 00:36:30;;;;;;;10.05;5.95;;;23.30;44.90;;;;;;7606479;23;80191;-63
2023/05/14 00:39:30;;;;;;;11.80;6.10;;;23.20;44.70;;;;;;7605064;23;80955;-65
2023/05/14 00:42:31;;;;;;;8.52;5.70;;;23.20;44.90;;;;;;7606670;23;80398;-65
2023/05/14 00:45:31;;;;;;;9.00;4.85;;;23.20;44.80;;;;;;7607242;23;80804;-64
2023/05/14 00:48:32;;;;;;;7.00;5.13;;;23.20;44.80;;;;;;7606956;23;81443;-65
2023/05/14 00:51:33;;;;;;;6.22;4.45;;;23.20;44.70;;;;;;7606027;23;81076;-65
2023/05/14 00:54:34;;;;;;;8.50;5.93;;;23.20;45.00;;;;;;7579818;23;83377;-66
2023/05/14 00:57:35;;;;;;;8.00;5.25;;;23.20;44.70;;;;;;7606269;23;80329;-67
2023/05/14 01:00:35;;;;;;;11.15;5.78;;;23.20;44.80;;;;;;7606022;23;80152;-62
2023/05/14 01:03:36;;;;;;;10.77;6.40;;;23.20;44.60;;;;;;7607164;23;80392;-62
2023/05/14 01:06:36;;;;;;;8.27;6.00;;;23.20;44.50;;;;;;7605477;23;86859;-62
2023/05/14 01:09:37;;;;;;;10.23;6.55;;;23.20;44.50;;;;;;7598854;23;80292;-62
2023/05/14 01:12:37;;;;;;;9.05;6.20;;;23.20;44.50;;;;;;7601248;23;80574;-63
2023/05/14 01:15:38;;;;;;;7.85;5.68;;;23.20;44.50;;;;;;7603269;23;80856;-61
2023/05/14 01:18:38;;;;;;;10.43;6.25;;;23.20;44.70;;;;;;7599751;23;80641;-62
2023/05/14 01:21:39;;;;;;;8.27;5.85;;;23.20;44.60;;;;;;7602926;23;80839;-62
2023/05/14 01:24:40;;;;;;;9.00;6.35;;;23.20;44.50;;;;;;7602496;23;80610;-62
2023/05/14 01:27:40;;;;;;;8.35;6.13;;;23.20;44.50;;;;;;7604642;23;80071;-64
2023/05/14 01:30:41;;;;;;;7.80;5.80;;;23.20;44.60;;;;;;7579121;23;83099;-62
2023/05/14 01:33:41;;;;;;;11.60;6.00;;;23.20;44.50;;;;;;7604996;23;80377;-65
2023/05/14 01:36:42;;;;;;;7.72;5.18;;;23.10;44.40;;;;;;7606502;23;81485;-64
2023/05/14 01:39:43;;;;;;;13.18;6.20;;;23.10;44.60;;;;;;7579669;23;82411;-64
2023/05/14 01:42:43;;;;;;;9.27;6.28;;;23.20;44.40;;;;;;7578566;23;82308;-61
2023/05/14 01:45:44;;;;;;;8.20;5.55;;;23.20;44.50;;;;;;7605267;23;80659;-61
2023/05/14 01:48:44;;;;;;;8.52;5.50;;;23.20;44.70;;;;;;7606290;23;80314;-60
2023/05/14 01:51:45;;;;;;;7.18;5.07;;;23.10;44.40;;;;;;7605757;23;80324;-59
2023/05/14 01:54:45;;;;;;;11.60;6.45;;;23.10;44.60;;;;;;7605623;23;80901;-59
2023/05/14 01:57:46;;;;;;;8.73;5.28;;;23.10;44.50;;;;;;7578717;23;82126;-60
2023/05/14 02:00:46;;;;;;;7.57;5.18;;;23.10;44.30;;;;;;7579331;23;82067;-60
2023/05/14 02:03:47;;;;;;;7.75;5.57;;;23.10;44.40;;;;;;7579516;23;81434;-60
2023/05/14 02:06:48;;;;;;;7.57;4.93;;;23.10;44.50;;;;;;7581230;23;82342;-60
2023/05/14 02:09:48;;;;;;;8.52;5.22;;;23.10;44.60;;;;;;7605525;23;80794;-60
2023/05/14 02:12:49;;;;;;;8.82;5.95;;;23.10;44.50;;;;;;7605921;23;80386;-61
2023/05/14 02:15:50;;;;;;;8.68;5.80;;;23.10;44.40;;;;;;7604799;23;81739;-60
2023/05/14 02:18:51;;;;;;;8.15;5.63;;;23.10;44.20;;;;;;7605546;23;81498;-62
2023/05/14 02:21:51;;;;;;;7.63;5.65;;;23.10;44.30;;;;;;7578848;23;83382;-61
2023/05/14 02:24:52;;;;;;;9.18;5.65;;;23.10;44.30;;;;;;7606625;23;81026;-62
2023/05/14 02:27:53;;;;;;;9.80;5.80;;;23.10;44.20;;;;;;7605816;23;80345;-62
2023/05/14 02:30:53;;;;;;;9.05;6.15;;;23.10;44.20;;;;;;7607252;23;80684;-61
2023/05/14 02:33:54;;;;;;;8.55;5.75;;;23.10;44.20;;;;;;7605334;23;80259;-61
2023/05/14 02:36:54;;;;;;;6.50;5.15;;;23.10;44.20;;;;;;7606824;23;80334;-60
2023/05/14 02:39:55;;;;;;;7.82;5.43;;;23.10;44.20;;;;;;7605421;23;80711;-60
2023/05/14 02:42:56;;;;;;;10.55;5.20;;;23.10;44.10;;;;;;7606462;23;80274;-60
2023/05/14 02:45:57;;;;;;;11.35;5.25;;;23.10;44.10;;;;;;7606542;23;80728;-61
2023/05/14 02:48:57;;;;;;;6.55;4.65;;;23.10;44.10;;;;;;7606518;23;80349;-60
2023/05/14 02:51:59;;;;;;;8.07;5.43;;;23.10;44.10;;;;;;7606672;23;80127;-60
2023/05/14 02:55:00;;;;;;;6.32;4.68;;;23.10;44.00;;;;;;7579665;23;82956;-61
2023/05/14 02:58:00;;;;;;;6.85;4.70;;;23.10;44.30;;;;;;7605592;23;80213;-60
2023/05/14 03:01:01;;;;;;;6.28;4.38;;;23.10;44.20;;;;;;7579155;23;81323;-61
2023/05/14 03:04:01;;;;;;;6.78;4.50;;;23.10;44.20;;;;;;7604758;23;81438;-63
2023/05/14 03:07:02;;;;;;;7.68;5.43;;;23.10;44.20;;;;;;7580010;23;83500;-63
2023/05/14 03:10:03;;;;;;;7.85;5.18;;;23.10;44.30;;;;;;7580619;23;83145;-65
2023/05/14 03:13:03;;;;;;;8.82;5.47;;;23.10;44.20;;;;;;7606329;23;80265;-64
2023/05/14 03:16:04;;;;;;;7.30;4.82;;;23.10;44.20;;;;;;7607149;23;80790;-63
2023/05/14 03:19:04;;;;;;;6.25;4.72;;;23.10;44.20;;;;;;7604897;23;80060;-62
2023/05/14 03:22:05;;;;;;;8.65;4.95;;;23.10;44.10;;;;;;7579467;23;81867;-62
2023/05/14 03:25:05;;;;;;;7.50;5.25;;;23.10;44.20;;;;;;7605196;23;82136;-62
2023/05/14 03:28:06;;;;;;;6.60;4.68;;;23.10;44.10;;;;;;7606286;23;80975;-61
2023/05/14 03:31:06;;;;;;;10.50;5.00;;;23.10;44.30;;;;;;7606019;23;86469;-61
2023/05/14 03:34:07;;;;;;;6.47;4.80;;;23.10;44.20;;;;;;7581796;23;83039;-62
2023/05/14 03:37:07;;;;;;;6.63;4.85;;;23.10;44.10;;;;;;7605950;23;80754;-61
2023/05/14 03:40:08;;;;;;;6.47;4.47;;;23.10;44.20;;;;;;7606476;23;80558;-59
2023/05/14 03:43:10;;;;;;;7.10;4.93;;;23.10;44.10;;;;;;7606458;23;81513;-60
2023/05/14 03:46:11;;;;;;;7.28;4.60;;;23.10;44.00;;;;;;7580617;23;83283;-60
2023/05/14 03:49:11;;;;;;;6.03;4.82;;;23.10;44.10;;;;;;7578749;23;81410;-63
2023/05/14 03:52:12;;;;;;;9.00;5.35;;;23.10;44.10;;;;;;7577740;23;82609;-62
2023/05/14 03:55:12;;;;;;;6.78;4.95;;;23.10;44.10;;;;;;7579916;23;81384;-64
2023/05/14 03:58:13;;;;;;;6.53;4.30;;;23.10;44.00;;;;;;7605279;23;80327;-63
2023/05/14 04:01:14;;;;;;;6.43;4.50;;;23.10;44.00;;;;;;7580763;23;83817;-64
2023/05/14 04:04:14;;;;;;;5.40;4.10;;;23.10;43.90;;;;;;7594905;23;80241;-64
2023/05/14 04:07:15;;;;;;;6.15;4.53;;;23.10;44.00;;;;;;7590454;23;81054;-61
2023/05/14 04:10:16;;;;;;;5.30;4.32;;;23.10;44.10;;;;;;7559975;23;82848;-60
2023/05/14 04:13:16;;;;;;;6.95;5.00;;;23.00;44.00;;;;;;7568576;23;83340;-60
2023/05/14 04:16:17;;;;;;;6.72;4.30;;;23.10;44.20;;;;;;7576502;23;82467;-61
2023/05/14 04:19:18;;;;;;;8.52;4.80;;;23.10;44.40;;;;;;7604537;23;80765;-61
2023/05/14 04:22:18;;;;;;;6.40;4.63;;;23.10;44.20;;;;;;7606271;23;80548;-61
2023/05/14 04:25:19;;;;;;;7.53;4.72;;;23.10;44.20;;;;;;7606447;23;80721;-62
2023/05/14 04:28:20;;;;;;;7.57;4.32;;;23.10;44.30;;;;;;7576210;23;80256;-63
2023/05/14 04:31:20;;;;;;;9.50;4.25;;;23.10;44.90;;;;;;7605185;23;82169;-63
2023/05/14 04:34:21;;;;;;;5.63;4.13;;;23.20;44.60;;;;;;7606265;23;80334;-65
2023/05/14 04:37:21;;;;;;;7.72;4.20;;;23.10;44.60;;;;;;7606730;23;82232;-63
2023/05/14 04:40:22;;;;;;;6.65;4.57;;;23.10;44.40;;;;;;7605937;23;80341;-63
2023/05/14 04:43:22;;;;;;;4.53;3.78;;;23.10;44.60;;;;;;7603547;23;80409;-59
2023/05/14 04:46:23;;;;;;;5.75;4.25;;;23.10;44.50;;;;;;7604442;23;81248;-65
2023/05/14 04:49:24;;;;;;;5.97;4.20;;;23.20;44.40;;;;;;7578164;23;81257;-64
2023/05/14 04:52:24;;;;;;;6.30;4.20;;;23.20;44.30;;;;;;7604096;23;80501;-62
2023/05/14 04:55:25;;;;;;;7.85;4.53;;;23.20;44.40;;;;;;7599363;23;81275;-64
2023/05/14 04:58:27;;;;;;;4.93;3.80;;;23.20;44.50;;;;;;7595605;23;80487;-63
2023/05/14 05:01:28;;;;;;;6.20;3.95;;;23.20;44.30;;;;;;7597713;23;81994;-65
2023/05/14 05:04:28;;;;;;;5.10;4.20;;;23.20;44.30;;;;;;7597832;23;80909;-61
2023/05/14 05:07:29;;;;;;;5.75;4.07;;;23.20;44.30;;;;;;7598856;23;80502;-62
2023/05/14 05:10:29;;;;;;;9.45;3.30;;;23.20;44.30;;;;;;7604498;23;80302;-62
2023/05/14 05:13:31;;;;;;;6.25;4.07;;;23.20;44.70;;;;;;7606102;23;80083;-60
2023/05/14 05:16:31;;;;;;;11.80;4.35;;;23.20;44.60;;;;;;7605776;23;80438;-61
2023/05/14 05:19:32;;;;;;;6.13;4.20;;;23.20;44.50;;;;;;7606919;23;80465;-60
2023/05/14 05:22:32;;;;;;;5.35;3.88;;;23.20;44.60;;;;;;7605766;23;80897;-62
2023/05/14 05:25:33;;;;;;;7.95;3.63;;;23.20;44.30;;;;;;7605881;23;80371;-56
2023/05/14 05:28:33;;;;;;;10.52;4.15;;;23.20;44.40;;;;;;7578637;23;80955;-59
2023/05/14 05:31:34;;;;;;;6.78;4.07;;;23.20;44.70;;;;;;7605515;23;80850;-61
2023/05/14 05:34:35;;;;;;;9.25;3.88;;;23.20;44.60;;;;;;7605878;23;80783;-58
2023/05/14 05:37:36;;;;;;;5.13;3.63;;;23.20;44.70;;;;;;7605903;23;80461;-62
2023/05/14 05:40:36;;;;;;;5.72;3.72;;;23.20;44.70;;;;;;7606155;23;81012;-60
2023/05/14 05:43:37;;;;;;;6.53;4.03;;;23.20;44.80;;;;;;7604634;23;80145;-59
2023/05/14 05:46:37;;;;;;;7.18;4.15;;;23.20;44.90;;;;;;7604728;23;81269;-59
2023/05/14 05:49:38;;;;;;;5.45;3.63;;;23.20;44.60;;;;;;7573339;23;82246;-60
2023/05/14 05:52:38;;;;;;;5.75;3.63;;;23.30;45.30;;;;;;7602045;23;80435;-60
2023/05/14 05:55:39;;;;;;;10.55;3.92;;;23.30;45.00;;;;;;7600057;23;80658;-60
2023/05/14 05:58:39;;;;;;;5.60;3.92;;;23.30;45.10;;;;;;7604622;23;81238;-59
2023/05/14 06:01:42;;;;;;;5.88;3.70;;;23.30;44.90;;;;;;7602040;23;80924;-60
2023/05/14 06:04:42;;;;;;;7.00;4.40;;;23.30;45.00;;;;;;7602318;23;80215;-60
2023/05/14 06:07:43;;;;;;;9.40;3.83;;;23.40;45.60;;;;;;7603603;23;80346;-63
2023/05/14 06:10:44;;;;;;;7.82;4.68;;;23.40;45.70;;;;;;7604487;23;79981;-60
2023/05/14 06:13:44;;;;;;;12.20;3.95;;;23.40;45.90;;;;;;7603243;23;81141;-61
2023/05/14 06:16:45;;;;;;;6.40;3.58;;;23.40;46.20;;;;;;7602329;23;81184;-61
2023/05/14 06:19:45;;;;;;;5.95;3.80;;;23.50;46.30;;;;;;7597968;23;80092;-60
2023/05/14 06:22:46;;;;;;;10.10;4.35;;;23.50;46.30;;;;;;7601544;23;80554;-66
2023/05/14 06:25:46;;;;;;;13.75;6.43;;;23.50;46.10;;;;;;7601453;23;81462;-63
2023/05/14 06:28:47;;;;;;;8.07;5.80;;;23.40;47.80;;;;;;7602126;23;80852;-63
2023/05/14 06:31:47;;;;;;;19.17;8.70;;;23.40;47.80;;;;;;7605645;23;81043;-66
2023/05/14 06:34:48;;;;;;;10.00;7.00;;;23.40;47.90;;;;;;7602888;23;80959;-59
2023/05/14 06:37:48;;;;;;;12.10;7.57;;;23.40;48.80;;;;;;7603070;23;80421;-60
2023/05/14 06:40:49;;;;;;;15.30;9.00;;;23.40;49.50;;;;;;7598539;23;80579;-57
2023/05/14 06:43:49;;;;;;;17.17;10.02;;;23.30;49.20;;;;;;7598375;23;81554;-61
2023/05/14 06:46:50;;;;;;;14.43;8.93;;;23.30;49.50;;;;;;7596394;23;83121;-60
2023/05/14 06:49:50;;;;;;;15.80;9.02;;;23.30;49.50;;;;;;7602692;23;82988;-60
2023/05/14 06:52:51;;;;;;;12.38;8.55;;;23.30;50.50;;;;;;7599018;23;80470;-60
2023/05/14 06:55:51;;;;;;;13.35;8.48;;;23.30;49.60;;;;;;7595012;23;81851;-59
2023/05/14 06:58:52;;;;;;;14.13;8.38;;;23.30;51.00;;;;;;7597582;23;85885;-66
2023/05/14 07:01:52;;;;;;;12.43;7.35;;;23.30;50.20;;;;;;7601324;23;80853;-62
2023/05/14 07:04:53;;;;;;;10.55;7.13;;;23.30;50.00;;;;;;7592092;23;80782;-60
2023/05/14 07:07:54;;;;;;;9.70;6.80;;;23.30;50.40;;;;;;7598896;23;80841;-61
2023/05/14 07:10:56;;;;;;;9.70;6.03;;;23.30;50.30;;;;;;7598268;23;80264;-62
2023/05/14 07:13:56;;;;;;;16.80;5.82;;;23.40;50.20;;;;;;7600540;23;80412;-62
2023/05/14 07:16:57;;;;;;;12.88;5.78;;;23.40;50.40;;;;;;7600369;23;81211;-72
2023/05/14 07:19:57;;;;;;;14.70;5.72;;;23.40;51.00;;;;;;7600950;23;81121;-55
2023/05/14 07:22:58;;;;;;;9.05;5.28;;;23.40;50.60;;;;;;7596399;23;81521;-65
2023/05/14 07:25:58;;;;;;;11.30;5.00;;;23.50;50.50;;;;;;7603049;23;80482;-62
2023/05/14 07:28:59;;;;;;;10.27;4.80;;;23.50;50.00;;;;;;7605174;23;80690;-61
2023/05/14 07:31:59;;;;;;;8.23;4.70;;;23.50;50.00;;;;;;7605792;23;80379;-61
2023/05/14 07:35:00;;;;;;;6.38;4.15;;;23.60;49.80;;;;;;7601490;23;81453;-67
2023/05/14 07:38:00;;;;;;;6.72;4.13;;;23.60;49.60;;;;;;7605943;23;80304;-64
2023/05/14 07:41:01;;;;;;;6.57;4.00;;;23.60;49.70;;;;;;7577598;23;80846;-62
2023/05/14 07:44:02;;;;;;;7.45;4.07;;;23.60;49.40;;;;;;7604139;23;80428;-63
2023/05/14 07:47:03;;;;;;;6.10;3.97;;;23.70;49.10;;;;;;7605909;23;80864;-62
2023/05/14 07:50:03;;;;;;;4.47;3.72;;;23.70;48.90;;;;;;7600572;23;80396;-61
2023/05/14 07:53:04;;;;;;;6.10;3.53;;;23.70;48.90;;;;;;7603745;23;81375;-58
2023/05/14 07:56:04;;;;;;;5.22;3.47;;;23.80;48.90;;;;;;7605047;23;80440;-60
2023/05/14 07:59:06;;;;;;;5.18;3.50;;;23.80;48.60;;;;;;7607246;23;80315;-64
2023/05/14 08:02:08;;;;;;;3.92;3.50;;;23.80;49.20;;;;;;7606708;23;81134;-59
2023/05/14 08:05:09;;;;;;;5.45;3.45;;;23.80;49.10;;;;;;7599136;23;81422;-61
2023/05/14 08:08:11;;;;;;;4.88;3.17;;;23.80;49.40;;;;;;7603641;23;80286;-61
2023/05/14 08:11:11;;;;;;;4.90;3.20;;;23.90;48.40;;;;;;7604665;23;80528;-63
2023/05/14 08:14:12;;;;;;;4.57;2.85;;;23.90;47.90;;;;;;7603491;23;80823;-64
2023/05/14 08:17:12;;;;;;;3.65;3.03;;;23.90;48.00;;;;;;7603288;23;80318;-62
2023/05/14 08:20:13;;;;;;;3.30;2.70;;;24.00;47.70;;;;;;7601399;23;81204;-63
2023/05/14 08:23:13;;;;;;;3.97;3.10;;;24.00;47.50;;;;;;7604594;23;80257;-61
2023/05/14 08:26:14;;;;;;;4.32;2.88;;;24.00;47.40;;;;;;7605679;23;80287;-61
2023/05/14 08:29:14;;;;;;;4.63;2.88;;;24.00;47.30;;;;;;7605294;23;80777;-60
2023/05/14 08:32:15;;;;;;;5.32;2.95;;;24.10;47.20;;;;;;7602094;23;80654;-63
2023/05/14 08:35:15;;;;;;;3.42;2.60;;;24.10;47.30;;;;;;7602451;23;81201;-59
2023/05/14 08:38:16;;;;;;;2.78;2.53;;;24.10;47.30;;;;;;7601356;23;80736;-58
2023/05/14 08:41:16;;;;;;;3.83;2.55;;;24.10;47.20;;;;;;7589664;23;80962;-58
2023/05/14 08:44:17;;;;;;;3.47;2.50;;;24.10;47.40;;;;;;7604687;23;80484;-59
2023/05/14 08:47:18;;;;;;;3.30;2.50;;;24.10;47.10;;;;;;7604092;23;81368;-56
2023/05/14 08:50:21;;;;;;;3.13;2.45;;;24.10;47.60;;;;;;7604064;23;80538;-60
2023/05/14 08:53:21;;;;;;;5.25;2.90;;;24.10;46.70;;;;;;7604184;23;81665;-61
2023/05/14 08:56:22;;;;;;;4.03;2.75;;;24.10;45.90;;;;;;7605097;23;80493;-60
2023/05/14 08:59:22;;;;;;;3.30;2.42;;;24.10;45.90;;;;;;7601637;23;81107;-64
2023/05/14 09:02:23;;;;;;;4.28;2.50;;;24.10;46.10;;;;;;7598389;23;80841;-63
2023/05/14 09:05:24;;;;;;;6.53;2.63;;;24.10;46.30;;;;;;7601296;23;80913;-63
2023/05/14 09:08:24;;;;;;;8.23;2.75;;;24.20;46.80;;;;;;7601796;23;80480;-65
2023/05/14 09:11:25;;;;;;;16.15;3.50;;;24.20;46.60;;;;;;7603899;23;80800;-64
2023/05/14 09:14:25;;;;;;;3.58;2.60;;;24.10;46.70;;;;;;7601639;23;80922;-63
2023/05/14 09:17:26;;;;;;;3.95;2.53;;;24.10;46.80;;;;;;7600114;23;81214;-64
2023/05/14 09:20:27;;;;;;;9.93;2.35;;;24.00;44.70;;;;;;7603417;23;80787;-64
2023/05/14 09:23:30;;;;;;;4.10;1.92;;;23.70;45.30;;;;;;7603278;23;80436;-64
2023/05/14 09:26:31;;;;;;;2.53;1.65;;;23.50;44.90;;;;;;7601953;23;80335;-64
2023/05/14 09:29:31;;;;;;;4.40;1.70;;;23.40;44.60;;;;;;7604290;23;80566;-63
2023/05/14 09:32:32;;;;;;;6.65;1.95;;;23.50;44.80;;;;;;7604604;23;80485;-64
2023/05/14 09:35:32;;;;;;;2.85;2.00;;;23.50;45.10;;;;;;7577142;23;80341;-65
2023/05/14 09:38:33;;;;;;;3.03;1.88;;;23.70;45.40;;;;;;7603720;23;80574;-62
2023/05/14 09:41:33;;;;;;;2.42;1.95;;;23.80;45.20;;;;;;7601691;23;80692;-64
2023/05/14 09:44:36;;;;;;;3.38;1.88;;;23.80;44.50;;;;;;7604765;23;80569;-63
2023/05/14 09:47:37;;;;;;;2.38;2.00;;;23.90;44.50;;;;;;7602882;23;81098;-70
2023/05/14 09:50:37;;;;;;;3.70;2.10;;;24.00;44.70;;;;;;7604478;23;81435;-66
2023/05/14 09:53:40;;;;;;;2.75;1.90;;;24.00;44.40;;;;;;7604276;23;80452;-66
2023/05/14 09:56:40;;;;;;;3.15;1.77;;;23.70;44.30;;;;;;7598273;23;81248;-62
2023/05/14 09:59:41;;;;;;;2.63;2.08;;;23.70;44.20;;;;;;7604227;23;81382;-59
2023/05/14 10:02:41;;;;;;;5.05;1.42;;;23.50;44.30;;;;;;7603750;23;80630;-61
2023/05/14 10:05:42;;;;;;;5.20;1.90;;;23.40;44.30;;;;;;7604432;23;80472;-71
2023/05/14 10:08:42;;;;;;;2.15;1.83;;;23.40;44.90;;;;;;7603815;23;80861;-62
2023/05/14 10:22:26;;;;;;;5.25;1.85;;;23.60;44.80;;;;;;7592722;23;81685;-66
2023/05/14 10:25:27;;;;;;;3.25;2.42;;;23.80;44.80;;;;;;7607205;23;80278;-70
2023/05/14 10:28:28;;;;;;;3.40;2.15;;;23.80;43.80;;;;;;7606266;23;81466;-69
2023/05/14 10:31:28;;;;;;;4.20;2.33;;;23.60;44.40;;;;;;7607367;23;80767;-67
2023/05/14 10:34:29;;;;;;;3.80;1.88;;;23.60;43.90;;;;;;7581811;23;83634;-70
2023/05/14 10:37:29;;;;;;;2.40;2.10;;;23.50;44.40;;;;;;7603017;23;81495;-68
2023/05/14 10:40:30;;;;;;;6.30;2.53;;;23.60;45.30;;;;;;7607939;23;80365;-70
2023/05/14 10:43:30;;;;;;;2.95;1.95;;;23.50;44.00;;;;;;7607587;23;80334;-70
2023/05/14 10:46:31;;;;;;;2.97;2.25;;;23.30;44.50;;;;;;7608123;23;80618;-71
2023/05/14 10:49:31;;;;;;;3.67;1.83;;;23.60;44.10;;;;;;7608412;23;80145;-73
2023/05/14 10:52:32;;;;;;;6.55;1.92;;;23.50;44.20;;;;;;7605269;23;80964;-71
2023/05/14 10:55:33;;;;;;;2.80;2.13;;;23.50;44.70;;;;;;7610372;23;80605;-72
2023/05/14 10:58:33;;;;;;;2.08;1.70;;;23.50;44.40;;;;;;7608028;23;81296;-68
2023/05/14 11:01:34;;;;;;;3.53;2.30;;;23.70;44.60;;;;;;7606417;23;80180;-68
2023/05/14 11:04:34;;;;;;;2.58;1.88;;;23.80;44.30;;;;;;7606378;23;80206;-69
2023/05/14 11:07:35;;;;;;;2.05;1.50;;;23.90;44.60;;;;;;7603191;23;80639;-70
2023/05/14 11:10:37;;;;;;;3.10;1.77;;;23.50;43.50;;;;;;7607433;23;80345;-63
2023/05/14 11:13:38;;;;;;;3.70;2.10;;;23.40;43.70;;;;;;7606928;23;81292;-63
2023/05/14 11:16:40;;;;;;;4.35;2.65;;;23.50;43.80;;;;;;7606436;23;80442;-65
2023/05/14 11:19:40;;;;;;;4.20;2.38;;;23.50;43.90;;;;;;7603716;23;81303;-62
2023/05/14 11:22:41;;;;;;;6.18;2.00;;;23.60;44.00;;;;;;7606846;23;80118;-62
2023/05/14 11:25:41;;;;;;;5.03;2.30;;;23.60;44.10;;;;;;7606507;23;81293;-60
2023/05/14 11:28:42;;;;;;;5.65;2.10;;;23.80;44.70;;;;;;7607021;23;80293;-70
2023/05/14 11:31:42;;;;;;;4.95;1.98;;;23.80;45.50;;;;;;7607737;23;80780;-66
2023/05/14 11:34:46;;;;;;;3.25;1.90;;;23.90;45.80;;;;;;7603448;23;80328;-67
2023/05/14 11:37:46;;;;;;;2.65;1.80;;;23.90;45.60;;;;;;7607423;23;80613;-66
2023/05/14 11:40:47;;;;;;;3.08;1.70;;;23.90;46.00;;;;;;7607341;23;80087;-66
2023/05/14 11:43:47;;;;;;;2.08;1.80;;;23.80;46.40;;;;;;7604934;23;80869;-64
2023/05/14 11:46:48;;;;;;;6.00;1.85;;;23.90;49.30;;;;;;7605602;23;80581;-57
2023/05/14 11:49:48;;;;;;;4.95;2.13;;;24.00;47.00;;;;;;7601765;23;80232;-59
2023/05/14 11:52:49;;;;;;;5.38;1.95;;;23.90;47.60;;;;;;7604827;23;81071;-60
2023/05/14 11:55:50;;;;;;;3.13;1.92;;;24.00;49.00;;;;;;7579021;23;83750;-62
2023/05/14 11:58:51;;;;;;;4.05;2.25;;;24.00;49.30;;;;;;7579962;23;80628;-62
2023/05/14 12:01:51;;;;;;;2.60;1.70;;;23.90;46.40;;;;;;7602333;23;80066;-59
2023/05/14 12:04:52;;;;;;;3.33;1.50;;;23.50;45.60;;;;;;7582238;23;85688;-58
2023/05/14 12:07:52;;;;;;;2.40;1.38;;;23.40;45.30;;;;;;7602863;23;82337;-61
2023/05/14 12:10:53;;;;;;;3.75;1.63;;;23.50;46.30;;;;;;7599208;23;80391;-57
2023/05/14 12:13:54;;;;;;;2.83;1.60;;;23.50;46.20;;;;;;7601308;23;80976;-59
2023/05/14 12:16:54;;;;;;;2.40;1.67;;;23.40;46.10;;;;;;7603361;23;80199;-59
2023/05/14 12:19:55;;;;;;;2.45;1.65;;;23.50;47.20;;;;;;7602415;23;80214;-59
2023/05/14 12:22:56;;;;;;;3.17;1.70;;;23.40;45.40;;;;;;7604187;23;80848;-59
2023/05/14 12:25:56;;;;;;;2.78;1.52;;;23.20;44.90;;;;;;7603228;23;81281;-59
2023/05/14 12:28:57;;;;;;;4.38;1.70;;;23.30;45.50;;;;;;7604221;23;81018;-60
2023/05/14 12:31:58;;;;;;;6.57;1.60;;;23.30;45.50;;;;;;7605409;23;80515;-58
2023/05/14 12:34:59;;;;;;;3.65;1.77;;;23.40;46.80;;;;;;7596713;23;80484;-56
2023/05/14 12:38:00;;;;;;;8.85;1.50;;;23.50;46.30;;;;;;7595279;23;81099;-59
2023/05/14 12:41:01;;;;;;;1.85;1.40;;;23.30;45.00;;;;;;7602522;23;80347;-57
2023/05/14 12:44:01;;;;;;;2.60;1.50;;;23.40;45.70;;;;;;7602197;23;80526;-64
2023/05/14 12:47:02;;;;;;;4.13;1.80;;;23.40;45.70;;;;;;7601717;23;80384;-65
2023/05/14 12:50:02;;;;;;;3.05;1.80;;;23.60;47.60;;;;;;7601008;23;80337;-59
2023/05/14 12:53:03;;;;;;;4.78;1.90;;;23.50;44.00;;;;;;7600619;23;81272;-60
2023/05/14 12:56:04;;;;;;;2.78;1.70;;;23.20;44.80;;;;;;7599895;23;81366;-56
2023/05/14 12:59:04;;;;;;;3.33;2.40;;;23.40;46.00;;;;;;7602068;23;80344;-57
2023/05/14 13:02:05;;;;;;;4.82;2.25;;;23.40;44.80;;;;;;7602582;23;81129;-59
2023/05/14 13:05:06;;;;;;;2.58;1.98;;;23.60;46.30;;;;;;7600762;23;80975;-58
2023/05/14 13:08:06;;;;;;;4.63;1.98;;;23.70;47.50;;;;;;7602482;23;80350;-59
2023/05/14 13:11:07;;;;;;;4.82;1.90;;;23.80;46.00;;;;;;7590283;23;80411;-69
2023/05/14 13:14:07;;;;;;;1.90;1.70;;;23.70;45.40;;;;;;7599141;23;80904;-63
2023/05/14 13:17:08;;;;;;;4.88;2.03;;;23.70;47.20;;;;;;7603397;23;80273;-58
2023/05/14 13:20:08;;;;;;;1.92;1.50;;;23.70;44.20;;;;;;7597786;23;80733;-59
2023/05/14 13:23:09;;;;;;;3.67;2.25;;;23.70;45.40;;;;;;7604650;23;80750;-59
2023/05/14 13:26:09;;;;;;;3.35;1.67;;;23.70;45.20;;;;;;7606778;23;81043;-62
2023/05/14 13:29:10;;;;;;;3.15;1.80;;;23.80;45.20;;;;;;7605587;23;80740;-60
2023/05/14 13:32:10;;;;;;;3.17;1.90;;;23.70;44.70;;;;;;7607637;23;80811;-63
2023/05/14 13:35:11;;;;;;;2.05;1.60;;;23.70;44.90;;;;;;7603748;23;81354;-59
2023/05/14 13:38:11;;;;;;;2.72;1.50;;;23.80;44.40;;;;;;7607753;23;87247;-59
2023/05/14 13:41:12;;;;;;;4.90;1.60;;;23.80;44.10;;;;;;7608126;23;80512;-61
2023/05/14 13:44:12;;;;;;;2.75;1.52;;;23.80;43.90;;;;;;7607873;23;80190;-59
2023/05/14 13:47:13;;;;;;;6.07;1.58;;;23.50;43.10;;;;;;7607616;23;80279;-60
2023/05/14 13:50:13;;;;;;;3.25;1.83;;;23.40;43.90;;;;;;7604299;23;80614;-59
2023/05/14 13:53:14;;;;;;;5.63;1.83;;;23.60;43.80;;;;;;7606557;23;80345;-59
2023/05/14 13:56:15;;;;;;;1.73;1.40;;;23.80;43.60;;;;;;7607373;23;80856;-61
2023/05/14 13:59:15;;;;;;;1.58;1.45;;;23.90;43.30;;;;;;7606568;23;80323;-60
2023/05/14 14:02:16;;;;;;;4.47;1.60;;;23.80;43.50;;;;;;7607308;23;80320;-57
2023/05/14 14:05:17;;;;;;;2.28;1.50;;;23.80;43.20;;;;;;7602144;23;82449;-60
2023/05/14 14:08:17;;;;;;;4.95;1.33;;;23.70;43.10;;;;;;7607809;23;80303;-60
2023/05/14 14:11:18;;;;;;;1.58;1.25;;;23.70;43.10;;;;;;7607586;23;80724;-61
2023/05/14 14:14:18;;;;;;;7.30;1.35;;;23.80;43.30;;;;;;7607088;23;80205;-65
2023/05/14 14:17:19;;;;;;;2.60;1.73;;;23.80;43.10;;;;;;7606851;23;79767;-66
2023/05/14 14:20:19;;;;;;;2.83;1.40;;;23.80;43.20;;;;;;7602587;23;81536;-69
2023/05/14 14:23:20;;;;;;;4.93;1.65;;;23.90;42.90;;;;;;7603870;23;80614;-67
2023/05/14 14:26:20;;;;;;;3.25;1.52;;;23.80;43.20;;;;;;7605142;23;80322;-69
2023/05/14 14:29:22;;;;;;;5.97;2.90;;;23.90;43.20;;;;;;7578528;23;82503;-69
2023/05/14 14:32:23;;;;;;;2.60;2.10;;;23.80;42.40;;;;;;7601945;23;80307;-60
2023/05/14 14:35:23;;;;;;;5.25;2.40;;;23.90;43.00;;;;;;7605906;23;80332;-58
2023/05/14 14:38:24;;;;;;;2.35;1.85;;;23.90;42.80;;;;;;7607077;23;80169;-61
2023/05/14 14:41:25;;;;;;;4.68;2.10;;;23.80;42.20;;;;;;7605298;23;80307;-60
2023/05/14 14:44:26;;;;;;;3.80;1.85;;;23.80;42.80;;;;;;7605751;23;80396;-60
2023/05/14 14:47:26;;;;;;;5.53;2.10;;;23.90;42.90;;;;;;7603045;23;80225;-64
2023/05/14 14:50:27;;;;;;;4.25;2.22;;;23.90;43.00;;;;;;7599548;23;81881;-61
2023/05/14 14:53:27;;;;;;;2.70;1.85;;;23.90;43.00;;;;;;7603248;23;80827;-60
2023/05/14 14:56:28;;;;;;;4.72;1.73;;;23.90;43.00;;;;;;7604554;23;81213;-57
2023/05/14 14:59:28;;;;;;;2.78;1.90;;;23.80;43.10;;;;;;7607041;23;80725;-64
2023/05/14 15:02:29;;;;;;;5.22;1.73;;;23.80;43.10;;;;;;7604030;23;80441;-61
2023/05/14 15:05:29;;;;;;;4.72;1.48;;;23.80;43.20;;;;;;7604251;23;81319;-62
2023/05/14 15:08:30;;;;;;;2.55;1.80;;;23.90;43.10;;;;;;7604663;23;80460;-61
2023/05/14 15:11:31;;;;;;;4.15;1.50;;;23.80;43.10;;;;;;7588416;23;80648;-62
2023/05/14 15:14:31;;;;;;;3.25;1.92;;;23.70;43.30;;;;;;7601860;23;81557;-64
2023/05/14 15:17:32;;;;;;;2.45;1.55;;;23.80;43.50;;;;;;7601175;23;80785;-64
2023/05/14 15:20:32;;;;;;;7.65;1.60;;;23.80;43.70;;;;;;7583943;23;81205;-63
2023/05/14 15:23:33;;;;;;;2.38;1.52;;;23.90;44.30;;;;;;7597576;23;80072;-66
2023/05/14 15:26:33;;;;;;;2.65;1.65;;;23.90;45.60;;;;;;7599575;23;80728;-64
2023/05/14 15:29:34;;;;;;;3.38;1.85;;;23.90;46.30;;;;;;7583285;23;81154;-66
2023/05/14 15:32:34;;;;;;;5.88;1.90;;;24.00;46.30;;;;;;7598719;23;80302;-64
2023/05/14 15:35:35;;;;;;;2.60;2.08;;;24.00;46.80;;;;;;7597305;23;81569;-63
2023/05/14 15:38:36;;;;;;;4.38;1.60;;;24.00;47.30;;;;;;7597350;23;80398;-62
2023/05/14 15:41:36;;;;;;;5.70;2.35;;;24.00;47.50;;;;;;7597225;23;80702;-65
2023/05/14 15:44:37;;;;;;;3.78;1.25;;;24.00;48.20;;;;;;7601027;23;80771;-64
2023/05/14 15:47:37;;;;;;;1.50;1.30;;;24.00;48.20;;;;;;7601487;23;81057;-66